Time;durP1;ratioP1;P1;durP2;ratioP2;P2;SDS_P1;SDS_P2;PMS_P1;PMS_P2;Temp;Humidity;BMP_temperature;BMP_pressure;BME280_temperature;BME280_humidity;BME280_pressure;Samples;Min_cycle;Max_cycle;Signal;HPM_P1;HPM_P2
2023/07/16 00:01:00;;;;;;;;;4.00;4.00;;;;;;;;5092267;28;8840;-86
2023/07/16 00:03:28;;;;;;;;;3.25;3.25;;;;;;;;5092729;28;8840;-85
2023/07/16 00:05:55;;;;;;;;;4.50;3.25;;;;;;;;5075055;28;8860;-85
2023/07/16 00:08:24;;;;;;;;;6.50;4.50;;;;;;;;5092257;28;8840;-86
2023/07/16 00:10:51;;;;;;;;;3.75;3.75;;;;;;;;5092473;28;8832;-85
2023/07/16 00:13:18;;;;;;;;;7.00;5.00;;;;;;;;5092998;28;8828;-85
2023/07/16 00:15:45;;;;;;;;;4.50;4.00;;;;;;;;5092394;28;8840;-86
2023/07/16 00:18:13;;;;;;;;;6.25;4.75;;;;;;;;5091843;28;8851;-84
2023/07/16 00:20:40;;;;;;;;;4.50;4.25;;;;;;;;5091809;28;8835;-83
2023/07/16 00:23:07;;;;;;;;;4.75;4.00;;;;;;;;5092619;28;8975;-82
2023/07/16 00:25:36;;;;;;;;;7.25;4.25;;;;;;;;5094567;28;8982;-83
2023/07/16 00:28:03;;;;;;;;;4.00;4.00;;;;;;;;5077246;28;8841;-84
2023/07/16 00:30:30;;;;;;;;;6.50;5.00;;;;;;;;5072070;28;8768;-85
2023/07/16 00:32:58;;;;;;;;;6.00;6.00;;;;;;;;5072356;28;8973;-85
2023/07/16 00:35:25;;;;;;;;;4.50;3.50;;;;;;;;5071825;28;8937;-85
2023/07/16 00:37:52;;;;;;;;;5.50;5.50;;;;;;;;5072323;28;8850;-84
2023/07/16 00:40:19;;;;;;;;;5.00;5.00;;;;;;;;5071823;28;8933;-86
2023/07/16 00:42:48;;;;;;;;;4.75;4.75;;;;;;;;5071703;28;8968;-87
2023/07/16 00:45:15;;;;;;;;;8.00;6.75;;;;;;;;5072352;28;8854;-86
2023/07/16 00:47:43;;;;;;;;;7.75;6.00;;;;;;;;5071933;28;8857;-87
2023/07/16 00:50:12;;;;;;;;;6.50;6.50;;;;;;;;5071899;28;8925;-86
2023/07/16 00:52:40;;;;;;;;;7.25;7.25;;;;;;;;5071979;28;9632;-86
2023/07/16 00:55:08;;;;;;;;;6.50;5.75;;;;;;;;5072132;28;8868;-87
2023/07/16 00:57:36;;;;;;;;;8.75;8.75;;;;;;;;5072129;28;8850;-86
2023/07/16 01:00:05;;;;;;;;;8.00;8.00;;;;;;;;5073149;28;8976;-87
2023/07/16 01:02:33;;;;;;;;;9.25;7.50;;;;;;;;5052818;28;8777;-87
2023/07/16 01:05:00;;;;;;;;;8.00;6.50;;;;;;;;5053561;28;8867;-86
2023/07/16 01:07:31;;;;;;;;;4.25;4.00;;;;;;;;5054391;28;9072;-88
2023/07/16 01:09:59;;;;;;;;;6.75;6.00;;;;;;;;5055582;28;8840;-87
2023/07/16 01:12:27;;;;;;;;;5.50;5.50;;;;;;;;5055554;28;8875;-88
2023/07/16 01:14:58;;;;;;;;;4.25;3.00;;;;;;;;5055860;28;8851;-84
2023/07/16 01:17:26;;;;;;;;;7.00;6.00;;;;;;;;5052705;28;9010;-83
2023/07/16 01:19:56;;;;;;;;;5.00;5.00;;;;;;;;5052064;28;8945;-85
2023/07/16 01:22:53;;;;;;;;;8.75;7.00;;;;;;;;5052373;28;8882;-86
2023/07/16 01:25:38;;;;;;;;;5.00;5.00;;;;;;;;5051409;28;8848;-86
2023/07/16 01:28:27;;;;;;;;;7.75;7.25;;;;;;;;5069347;28;8853;-86
2023/07/16 01:30:57;;;;;;;;;7.75;7.75;;;;;;;;5070365;28;8904;-86
2023/07/16 01:33:25;;;;;;;;;6.50;5.00;;;;;;;;5071360;28;8927;-86
2023/07/16 01:35:53;;;;;;;;;8.75;7.00;;;;;;;;5070905;28;8866;-86
2023/07/16 01:38:21;;;;;;;;;8.00;8.00;;;;;;;;5071056;28;8829;-87
2023/07/16 01:40:48;;;;;;;;;8.25;8.25;;;;;;;;5071322;28;8876;-84
2023/07/16 01:43:15;;;;;;;;;7.00;5.50;;;;;;;;5071533;28;8983;-86
2023/07/16 01:45:45;;;;;;;;;9.00;9.00;;;;;;;;5070484;28;8982;-85
2023/07/16 01:48:25;;;;;;;;;10.50;8.25;;;;;;;;5070349;28;8937;-87
2023/07/16 01:50:53;;;;;;;;;6.50;6.50;;;;;;;;5071236;28;8886;-86
2023/07/16 01:53:20;;;;;;;;;6.75;6.75;;;;;;;;5070906;28;8882;-85
2023/07/16 01:55:47;;;;;;;;;11.00;9.75;;;;;;;;5070864;28;8998;-86
2023/07/16 01:58:15;;;;;;;;;9.25;9.00;;;;;;;;5070589;28;8910;-87
2023/07/16 02:00:42;;;;;;;;;9.75;9.75;;;;;;;;5070154;28;8888;-86
2023/07/16 02:03:09;;;;;;;;;11.50;9.50;;;;;;;;5070358;28;8982;-86
2023/07/16 02:05:38;;;;;;;;;8.75;8.00;;;;;;;;5070512;28;8857;-87
2023/07/16 02:08:06;;;;;;;;;12.75;9.50;;;;;;;;5070755;28;8863;-87
2023/07/16 02:10:33;;;;;;;;;7.50;6.00;;;;;;;;5070401;28;8849;-87
2023/07/16 02:13:00;;;;;;;;;10.25;8.25;;;;;;;;5070251;28;8975;-85
2023/07/16 02:15:27;;;;;;;;;10.50;9.25;;;;;;;;5070333;28;8873;-83
2023/07/16 02:17:57;;;;;;;;;10.75;7.75;;;;;;;;5070478;28;8898;-85
2023/07/16 02:20:25;;;;;;;;;11.00;9.00;;;;;;;;5070549;28;8841;-86
2023/07/16 02:22:53;;;;;;;;;8.00;8.00;;;;;;;;5070262;28;8922;-86
2023/07/16 02:25:21;;;;;;;;;10.75;7.50;;;;;;;;5070824;28;8872;-88
2023/07/16 02:27:48;;;;;;;;;9.75;8.25;;;;;;;;5054349;28;8936;-86
2023/07/16 02:30:15;;;;;;;;;11.00;9.75;;;;;;;;5052360;28;8847;-88
2023/07/16 02:32:45;;;;;;;;;8.25;8.25;;;;;;;;5054621;28;8859;-85
2023/07/16 02:35:13;;;;;;;;;10.50;10.50;;;;;;;;5050581;28;8867;-85
2023/07/16 02:37:40;;;;;;;;;15.50;12.00;;;;;;;;5050429;28;8851;-88
2023/07/16 02:40:10;;;;;;;;;10.75;9.25;;;;;;;;5050581;28;9599;-87
2023/07/16 02:42:38;;;;;;;;;11.25;8.50;;;;;;;;5054535;28;8844;-87
2023/07/16 02:45:06;;;;;;;;;10.25;7.25;;;;;;;;5055233;28;8867;-86
2023/07/16 02:47:33;;;;;;;;;11.50;10.00;;;;;;;;5056193;28;8851;-85
2023/07/16 02:50:00;;;;;;;;;8.50;8.50;;;;;;;;5055835;28;8851;-85
2023/07/16 02:52:28;;;;;;;;;7.75;7.75;;;;;;;;5055337;28;8863;-86
2023/07/16 02:54:55;;;;;;;;;12.25;10.75;;;;;;;;5055037;28;8863;-87
2023/07/16 02:57:24;;;;;;;;;11.25;11.25;;;;;;;;5054229;28;8848;-87
2023/07/16 02:59:51;;;;;;;;;12.75;12.25;;;;;;;;5056658;28;8862;-89
2023/07/16 03:02:20;;;;;;;;;12.75;12.75;;;;;;;;5056098;28;8772;-88
2023/07/16 03:04:48;;;;;;;;;13.25;11.50;;;;;;;;5055052;28;8878;-92
2023/07/16 03:07:15;;;;;;;;;10.75;10.00;;;;;;;;5054330;28;8879;-91
2023/07/16 03:09:42;;;;;;;;;11.75;10.00;;;;;;;;5054453;28;8965;-91
2023/07/16 03:12:10;;;;;;;;;9.25;8.75;;;;;;;;5053629;28;9001;-89
2023/07/16 03:14:38;;;;;;;;;12.25;9.50;;;;;;;;5053833;28;8941;-90
2023/07/16 03:17:06;;;;;;;;;10.50;10.50;;;;;;;;5053421;28;9653;-91
2023/07/16 03:19:34;;;;;;;;;10.50;10.50;;;;;;;;5053503;28;8847;-92
2023/07/16 03:22:02;;;;;;;;;11.50;11.50;;;;;;;;5054497;28;8986;-87
2023/07/16 03:24:30;;;;;;;;;12.50;12.25;;;;;;;;5055636;28;8847;-90
2023/07/16 03:26:57;;;;;;;;;15.00;14.50;;;;;;;;5062819;28;8849;-89
2023/07/16 03:29:24;;;;;;;;;12.75;11.50;;;;;;;;5073488;28;8849;-87
2023/07/16 03:31:53;;;;;;;;;12.75;12.75;;;;;;;;5072964;28;8953;-89
2023/07/16 03:34:20;;;;;;;;;12.00;10.75;;;;;;;;5073370;28;8857;-89
2023/07/16 03:36:47;;;;;;;;;11.50;11.50;;;;;;;;5073472;28;8863;-89
2023/07/16 03:39:14;;;;;;;;;9.75;9.75;;;;;;;;5078576;28;8875;-90
2023/07/16 03:41:42;;;;;;;;;14.00;12.75;;;;;;;;5076359;28;8982;-88
2023/07/16 03:44:09;;;;;;;;;16.25;15.00;;;;;;;;5074012;28;8883;-89
2023/07/16 03:46:36;;;;;;;;;12.00;9.50;;;;;;;;5073260;28;8849;-90
2023/07/16 03:49:08;;;;;;;;;14.25;10.75;;;;;;;;5071095;28;8956;-84
2023/07/16 03:51:35;;;;;;;;;11.75;11.50;;;;;;;;5072630;28;8865;-90
2023/07/16 03:54:03;;;;;;;;;15.25;12.50;;;;;;;;5072023;28;8967;-85
2023/07/16 03:56:30;;;;;;;;;15.75;12.50;;;;;;;;5072485;28;8974;-87
2023/07/16 03:58:57;;;;;;;;;11.00;10.50;;;;;;;;5071931;28;8852;-86
2023/07/16 04:01:27;;;;;;;;;14.00;14.00;;;;;;;;5072280;28;8891;-88
2023/07/16 04:03:54;;;;;;;;;17.75;13.00;;;;;;;;5072148;28;8899;-88
2023/07/16 04:06:23;;;;;;;;;16.50;15.25;;;;;;;;5072489;28;8836;-89
2023/07/16 04:08:50;;;;;;;;;11.75;11.50;;;;;;;;5072229;28;8852;-87
2023/07/16 04:11:17;;;;;;;;;12.50;12.50;;;;;;;;5071981;28;8987;-91
2023/07/16 04:13:44;;;;;;;;;12.25;11.50;;;;;;;;5071681;28;8845;-87
2023/07/16 04:16:13;;;;;;;;;14.75;12.75;;;;;;;;5072219;28;8863;-88
2023/07/16 04:18:41;;;;;;;;;12.50;12.50;;;;;;;;5072777;28;8844;-85
2023/07/16 04:21:08;;;;;;;;;11.00;10.00;;;;;;;;5074348;28;8888;-86
2023/07/16 04:23:37;;;;;;;;;11.00;11.00;;;;;;;;5077428;28;8949;-85
2023/07/16 04:26:04;;;;;;;;;10.25;8.00;;;;;;;;5073438;28;8864;-87
2023/07/16 04:28:31;;;;;;;;;10.50;10.50;;;;;;;;5053695;28;8847;-87
2023/07/16 04:31:02;;;;;;;;;12.50;10.50;;;;;;;;5052891;28;8775;-86
2023/07/16 04:33:29;;;;;;;;;5.25;5.25;;;;;;;;5051793;28;8851;-85
2023/07/16 04:35:56;;;;;;;;;11.25;10.75;;;;;;;;5051365;28;9000;-87
2023/07/16 04:38:23;;;;;;;;;11.50;10.75;;;;;;;;5051184;28;9721;-86
2023/07/16 04:40:52;;;;;;;;;12.75;12.00;;;;;;;;5051172;28;9753;-87
2023/07/16 04:43:19;;;;;;;;;12.25;9.50;;;;;;;;5051349;28;8847;-87
2023/07/16 04:45:47;;;;;;;;;12.50;9.75;;;;;;;;5050950;28;8970;-88
2023/07/16 04:48:14;;;;;;;;;13.75;12.75;;;;;;;;5051347;28;8855;-86
2023/07/16 04:50:41;;;;;;;;;9.25;8.25;;;;;;;;5051016;28;8986;-87
2023/07/16 04:53:09;;;;;;;;;13.50;9.75;;;;;;;;5051077;28;8981;-86
2023/07/16 04:55:37;;;;;;;;;12.00;9.25;;;;;;;;5050988;28;8843;-83
2023/07/16 04:58:06;;;;;;;;;7.75;7.75;;;;;;;;5051153;28;9609;-84
2023/07/16 05:00:34;;;;;;;;;9.75;9.75;;;;;;;;5050943;28;8798;-85
2023/07/16 05:03:01;;;;;;;;;13.75;12.25;;;;;;;;5050158;28;8869;-86
2023/07/16 05:05:31;;;;;;;;;13.25;10.50;;;;;;;;5050770;28;8934;-89
2023/07/16 05:07:58;;;;;;;;;10.00;10.00;;;;;;;;5050975;28;9642;-83
2023/07/16 05:10:26;;;;;;;;;8.25;8.25;;;;;;;;5050867;28;8855;-87
2023/07/16 05:12:53;;;;;;;;;12.00;11.00;;;;;;;;5050315;28;8850;-87
2023/07/16 05:15:22;;;;;;;;;14.50;11.75;;;;;;;;5050727;28;8844;-88
2023/07/16 05:17:49;;;;;;;;;12.75;12.00;;;;;;;;5050645;28;8843;-85
2023/07/16 05:20:17;;;;;;;;;16.00;12.50;;;;;;;;5050729;28;8859;-86
2023/07/16 05:22:44;;;;;;;;;13.00;12.00;;;;;;;;5050181;28;9685;-89
2023/07/16 05:25:11;;;;;;;;;10.00;10.00;;;;;;;;5050757;28;8867;-90
2023/07/16 05:27:41;;;;;;;;;13.00;12.00;;;;;;;;5066484;28;8971;-84
2023/07/16 05:30:09;;;;;;;;;10.75;10.25;;;;;;;;5072142;28;8855;-83
2023/07/16 05:32:38;;;;;;;;;11.25;9.75;;;;;;;;5071133;28;8845;-87
2023/07/16 05:35:06;;;;;;;;;13.25;10.50;;;;;;;;5070663;28;8853;-85
2023/07/16 05:37:33;;;;;;;;;13.50;11.50;;;;;;;;5071098;28;8976;-89
2023/07/16 05:40:01;;;;;;;;;9.00;9.00;;;;;;;;5070010;28;8898;-83
2023/07/16 05:42:30;;;;;;;;;13.00;10.00;;;;;;;;5082446;28;8863;-88
2023/07/16 05:44:58;;;;;;;;;11.25;10.25;;;;;;;;5072822;28;8883;-90
2023/07/16 05:47:25;;;;;;;;;12.75;10.00;;;;;;;;5072207;28;8833;-82
2023/07/16 05:49:53;;;;;;;;;12.50;11.50;;;;;;;;5070568;28;8866;-87
2023/07/16 05:52:21;;;;;;;;;14.00;10.50;;;;;;;;5070977;28;8852;-87
2023/07/16 05:54:48;;;;;;;;;9.50;9.50;;;;;;;;5070548;28;9098;-86
2023/07/16 05:57:15;;;;;;;;;6.50;6.50;;;;;;;;5071725;28;8841;-83
2023/07/16 05:59:42;;;;;;;;;10.50;8.75;;;;;;;;5072385;28;8844;-88
2023/07/16 06:02:10;;;;;;;;;11.50;10.00;;;;;;;;5073645;28;8797;-83
2023/07/16 06:04:37;;;;;;;;;11.00;11.00;;;;;;;;5074676;28;9015;-84
2023/07/16 06:07:06;;;;;;;;;14.50;10.75;;;;;;;;5072431;28;8918;-84
2023/07/16 06:09:35;;;;;;;;;7.75;7.75;;;;;;;;5072089;28;8852;-83
2023/07/16 06:12:02;;;;;;;;;12.75;11.75;;;;;;;;5070045;28;8861;-88
2023/07/16 06:14:30;;;;;;;;;9.25;9.25;;;;;;;;5069692;28;8931;-89
2023/07/16 06:17:00;;;;;;;;;11.25;11.25;;;;;;;;5071242;28;8848;-87
2023/07/16 06:19:30;;;;;;;;;9.25;9.25;;;;;;;;5069848;28;8855;-81
2023/07/16 06:21:57;;;;;;;;;12.75;12.75;;;;;;;;5069522;28;8856;-91
2023/07/16 06:24:26;;;;;;;;;11.75;10.50;;;;;;;;5069309;28;9658;-85
2023/07/16 06:26:54;;;;;;;;;14.25;11.00;;;;;;;;5060574;28;8855;-78
2023/07/16 06:29:21;;;;;;;;;10.50;10.50;;;;;;;;5049219;28;8877;-80
2023/07/16 06:31:59;;;;;;;;;10.75;7.00;;;;;;;;5048388;28;8784;-79
2023/07/16 06:34:29;;;;;;;;;13.00;10.00;;;;;;;;5049172;28;8926;-80
2023/07/16 06:36:56;;;;;;;;;9.75;8.50;;;;;;;;5049393;28;8874;-77
2023/07/16 06:39:23;;;;;;;;;11.75;8.75;;;;;;;;5049997;28;8847;-78
2023/07/16 06:41:51;;;;;;;;;9.00;8.75;;;;;;;;5051566;28;8867;-80
2023/07/16 06:44:19;;;;;;;;;15.00;13.00;;;;;;;;5048965;28;8960;-79
2023/07/16 06:46:46;;;;;;;;;10.75;10.75;;;;;;;;5048567;28;8869;-78
2023/07/16 06:49:13;;;;;;;;;13.50;9.00;;;;;;;;5048926;28;8863;-86
2023/07/16 06:51:40;;;;;;;;;10.50;10.25;;;;;;;;5049230;28;8897;-74
2023/07/16 06:54:08;;;;;;;;;10.25;7.50;;;;;;;;5050997;28;8863;-81
2023/07/16 06:56:35;;;;;;;;;14.25;13.75;;;;;;;;5051560;28;8928;-81
2023/07/16 06:59:04;;;;;;;;;7.75;7.75;;;;;;;;5049702;28;8878;-84
2023/07/16 07:01:31;;;;;;;;;9.25;9.25;;;;;;;;5048616;28;8788;-75
2023/07/16 07:03:58;;;;;;;;;11.25;10.75;;;;;;;;5048842;28;8867;-84
2023/07/16 07:06:25;;;;;;;;;9.50;9.50;;;;;;;;5049516;28;8982;-91
2023/07/16 07:08:53;;;;;;;;;10.50;9.75;;;;;;;;5048945;28;8874;-87
2023/07/16 07:11:22;;;;;;;;;12.25;10.50;;;;;;;;5049483;28;8859;-85
2023/07/16 07:13:50;;;;;;;;;9.00;9.00;;;;;;;;5049086;28;8843;-85
2023/07/16 07:16:19;;;;;;;;;10.75;10.75;;;;;;;;5049424;28;8866;-86
2023/07/16 07:18:46;;;;;;;;;10.50;9.00;;;;;;;;5049111;28;8839;-88
2023/07/16 07:21:13;;;;;;;;;8.25;8.25;;;;;;;;5049300;28;8835;-82
2023/07/16 07:23:41;;;;;;;;;9.00;9.00;;;;;;;;5049127;28;8871;-80
2023/07/16 07:26:08;;;;;;;;;8.00;6.00;;;;;;;;5052669;28;8847;-87
2023/07/16 07:28:35;;;;;;;;;5.50;5.50;;;;;;;;5073187;28;8852;-89
2023/07/16 07:31:03;;;;;;;;;9.00;8.00;;;;;;;;5072991;28;8777;-88
2023/07/16 07:33:32;;;;;;;;;11.00;8.75;;;;;;;;5074170;28;8872;-87
2023/07/16 07:35:59;;;;;;;;;8.00;7.25;;;;;;;;5076548;28;8841;-88
2023/07/16 07:38:28;;;;;;;;;7.00;7.00;;;;;;;;5075948;28;8856;-86
2023/07/16 07:40:55;;;;;;;;;9.75;9.00;;;;;;;;5074430;28;8860;-87
2023/07/16 07:43:22;;;;;;;;;8.25;7.00;;;;;;;;5073205;28;8837;-85
2023/07/16 07:45:50;;;;;;;;;8.75;8.00;;;;;;;;5073011;28;8937;-90
2023/07/16 07:48:17;;;;;;;;;8.50;7.00;;;;;;;;5073031;28;8849;-81
2023/07/16 07:50:47;;;;;;;;;7.00;7.00;;;;;;;;5072079;28;8967;-81
2023/07/16 07:53:17;;;;;;;;;13.50;9.25;;;;;;;;5072254;28;8868;-83
2023/07/16 07:55:45;;;;;;;;;5.75;5.75;;;;;;;;5071642;28;8860;-83
2023/07/16 07:58:12;;;;;;;;;10.50;9.75;;;;;;;;5071916;28;8885;-80
2023/07/16 08:00:39;;;;;;;;;8.50;8.25;;;;;;;;5071692;28;8887;-81
2023/07/16 08:03:07;;;;;;;;;6.00;6.00;;;;;;;;5071779;28;8852;-76
2023/07/16 08:05:34;;;;;;;;;6.75;6.75;;;;;;;;5071350;28;8891;-79
2023/07/16 08:08:03;;;;;;;;;8.00;7.75;;;;;;;;5071167;28;8844;-87
2023/07/16 08:10:30;;;;;;;;;10.50;9.25;;;;;;;;5071187;28;8852;-81
2023/07/16 08:12:59;;;;;;;;;8.50;8.50;;;;;;;;5071193;28;8860;-78
2023/07/16 08:15:29;;;;;;;;;8.50;8.50;;;;;;;;5071387;28;8852;-80
2023/07/16 08:17:59;;;;;;;;;10.75;7.25;;;;;;;;5071116;28;8861;-77
2023/07/16 08:20:26;;;;;;;;;8.75;6.75;;;;;;;;5071315;28;8840;-79
2023/07/16 08:22:53;;;;;;;;;9.00;7.75;;;;;;;;5070736;28;8929;-75
2023/07/16 08:25:22;;;;;;;;;8.75;7.25;;;;;;;;5071254;28;8853;-77
2023/07/16 08:27:49;;;;;;;;;11.75;7.00;;;;;;;;5054781;28;8970;-79
2023/07/16 08:30:16;;;;;;;;;7.25;6.00;;;;;;;;5050787;28;8877;-78
2023/07/16 08:32:44;;;;;;;;;5.80;5.00;;;;;;;;5051784;28;9606;-81
2023/07/16 08:35:15;;;;;;;;;8.60;6.80;;;;;;;;5053236;28;8950;-80
2023/07/16 08:37:43;;;;;;;;;7.40;7.20;;;;;;;;5052312;28;8882;-79
2023/07/16 08:40:14;;;;;;;;;11.20;8.00;;;;;;;;5052470;28;8855;-72
2023/07/16 08:42:45;;;;;;;;;7.80;6.00;;;;;;;;5051232;28;8864;-80
2023/07/16 08:45:13;;;;;;;;;6.80;6.00;;;;;;;;5051180;28;8914;-80
2023/07/16 08:47:42;;;;;;;;;8.00;6.80;;;;;;;;5050619;28;8851;-73
2023/07/16 08:50:11;;;;;;;;;7.40;7.40;;;;;;;;5050716;28;8847;-79
2023/07/16 08:52:39;;;;;;;;;6.40;2.80;;;;;;;;5050852;28;8863;-79
2023/07/16 08:55:08;;;;;;;;;8.40;6.60;;;;;;;;5050915;28;8859;-78
2023/07/16 08:57:35;;;;;;;;;6.80;6.80;;;;;;;;5050954;28;8863;-76
2023/07/16 09:00:05;;;;;;;;;9.60;7.40;;;;;;;;5050541;28;8871;-75
2023/07/16 09:02:32;;;;;;;;;6.20;6.20;;;;;;;;5070848;28;8818;-80
2023/07/16 09:05:01;;;;;;;;;5.80;5.80;;;;;;;;5070792;28;9451;-82
2023/07/16 09:07:31;;;;;;;;;7.20;5.20;;;;;;;;5071040;28;8936;-83
2023/07/16 09:09:59;;;;;;;;;5.00;5.00;;;;;;;;5071458;28;8880;-83
2023/07/16 09:12:27;;;;;;;;;7.20;7.20;;;;;;;;5073311;28;8864;-86
2023/07/16 09:14:55;;;;;;;;;6.80;6.80;;;;;;;;5072895;28;8846;-85
2023/07/16 09:17:25;;;;;;;;;9.60;6.00;;;;;;;;5071790;28;8834;-83
2023/07/16 09:19:55;;;;;;;;;5.80;5.80;;;;;;;;5071642;28;8876;-85
2023/07/16 09:22:23;;;;;;;;;5.00;5.00;;;;;;;;5070038;28;9584;-81
2023/07/16 09:24:50;;;;;;;;;7.00;7.00;;;;;;;;5069779;28;8849;-80
2023/07/16 09:27:17;;;;;;;;;6.40;6.40;;;;;;;;5081162;28;8909;-77
2023/07/16 09:29:44;;;;;;;;;7.20;6.80;;;;;;;;5089725;28;8921;-75
2023/07/16 09:32:12;;;;;;;;;5.60;5.40;;;;;;;;5089583;28;8788;-78
2023/07/16 09:34:40;;;;;;;;;5.20;5.20;;;;;;;;5089979;28;8871;-81
2023/07/16 09:37:07;;;;;;;;;6.20;5.20;;;;;;;;5090474;28;8832;-83
2023/07/16 09:39:36;;;;;;;;;4.00;4.00;;;;;;;;5090179;28;8840;-81
2023/07/16 09:42:07;;;;;;;;;6.00;4.00;;;;;;;;5089834;28;8919;-85
2023/07/16 09:44:37;;;;;;;;;7.00;5.60;;;;;;;;5090510;28;8868;-85
2023/07/16 09:47:04;;;;;;;;;6.60;6.60;;;;;;;;5090415;28;8871;-85
2023/07/16 09:49:32;;;;;;;;;5.40;5.40;;;;;;;;5092643;28;8851;-85
2023/07/16 09:52:03;;;;;;;;;6.20;6.20;;;;;;;;5092552;28;8845;-76
2023/07/16 09:54:34;;;;;;;;;5.80;4.00;;;;;;;;5091868;28;8860;-74
2023/07/16 09:57:02;;;;;;;;;4.40;4.40;;;;;;;;5089958;28;8968;-78
2023/07/16 09:59:32;;;;;;;;;4.80;4.80;;;;;;;;5090321;28;8871;-85
2023/07/16 10:02:00;;;;;;;;;9.00;6.00;;;;;;;;5089569;28;8788;-82
2023/07/16 10:04:37;;;;;;;;;4.20;4.20;;;;;;;;5089932;28;8856;-84
2023/07/16 10:07:06;;;;;;;;;4.60;3.00;;;;;;;;5091106;28;8882;-86
2023/07/16 10:09:39;;;;;;;;;4.80;4.80;;;;;;;;5091255;28;8866;-75
2023/07/16 10:12:13;;;;;;;;;6.80;5.00;;;;;;;;5092824;28;9611;-82
2023/07/16 10:14:42;;;;;;;;;3.40;3.40;;;;;;;;5091015;28;8867;-73
2023/07/16 10:17:17;;;;;;;;;5.00;5.00;;;;;;;;5090931;28;8840;-87
2023/07/16 10:19:50;;;;;;;;;4.40;4.40;;;;;;;;5089566;28;8979;-82
2023/07/16 10:22:19;;;;;;;;;8.00;6.00;;;;;;;;5088758;28;8880;-81
2023/07/16 10:24:54;;;;;;;;;4.60;3.60;;;;;;;;5092720;28;8844;-79
2023/07/16 10:27:31;;;;;;;;;5.00;5.00;;;;;;;;5084496;28;8881;-88
2023/07/16 10:30:01;;;;;;;;;6.60;4.60;;;;;;;;5074168;28;8948;-85
2023/07/16 10:32:30;;;;;;;;;6.60;5.20;;;;;;;;5069243;28;8782;-81
2023/07/16 10:35:00;;;;;;;;;9.80;8.40;;;;;;;;5069045;28;8964;-77
2023/07/16 10:37:29;;;;;;;;;7.80;6.00;;;;;;;;5070077;28;8846;-81
2023/07/16 10:39:58;;;;;;;;;7.80;7.80;;;;;;;;5069669;28;8931;-82
2023/07/16 10:42:27;;;;;;;;;5.60;5.60;;;;;;;;5070113;28;8854;-84
2023/07/16 10:44:55;;;;;;;;;4.20;4.20;;;;;;;;5070566;28;8846;-84
2023/07/16 10:47:24;;;;;;;;;4.40;4.40;;;;;;;;5072093;28;8949;-86
2023/07/16 10:49:53;;;;;;;;;1.60;1.60;;;;;;;;5072218;28;8867;-86
2023/07/16 10:52:22;;;;;;;;;3.60;3.60;;;;;;;;5071024;28;8920;-81
2023/07/16 10:54:54;;;;;;;;;6.40;4.60;;;;;;;;5069611;28;8866;-84
2023/07/16 10:57:21;;;;;;;;;4.60;3.00;;;;;;;;5069489;28;8859;-85
2023/07/16 10:59:49;;;;;;;;;4.40;4.40;;;;;;;;5069145;28;8838;-81
2023/07/16 11:02:17;;;;;;;;;7.00;5.00;;;;;;;;5072230;28;8806;-85
2023/07/16 11:04:45;;;;;;;;;4.80;4.80;;;;;;;;5073005;28;8838;-89
2023/07/16 11:07:14;;;;;;;;;5.40;5.40;;;;;;;;5073202;28;8853;-86
2023/07/16 11:09:45;;;;;;;;;4.80;3.80;;;;;;;;5072981;28;9628;-78
2023/07/16 11:12:14;;;;;;;;;3.40;3.00;;;;;;;;5073262;28;8972;-82
2023/07/16 11:14:45;;;;;;;;;3.40;3.40;;;;;;;;5073303;28;8854;-83
2023/07/16 11:17:13;;;;;;;;;1.40;0.00;;;;;;;;5072706;28;8857;-85
2023/07/16 11:19:46;;;;;;;;;2.20;2.20;;;;;;;;5073136;28;8872;-72
2023/07/16 11:22:13;;;;;;;;;6.60;6.60;;;;;;;;5072527;28;8850;-83
2023/07/16 11:24:41;;;;;;;;;5.00;4.60;;;;;;;;5072463;28;8854;-78
2023/07/16 11:27:16;;;;;;;;;3.00;3.00;;;;;;;;5083145;28;8827;-72
2023/07/16 11:29:47;;;;;;;;;3.60;3.20;;;;;;;;5092359;28;8847;-78
2023/07/16 11:32:22;;;;;;;;;4.20;2.20;;;;;;;;5092024;28;8810;-84
2023/07/16 11:34:55;;;;;;;;;4.20;3.00;;;;;;;;5092502;28;8858;-81
2023/07/16 11:37:23;;;;;;;;;4.40;4.40;;;;;;;;5092558;28;8831;-84
2023/07/16 11:39:50;;;;;;;;;3.00;3.00;;;;;;;;5093316;28;8974;-87
2023/07/16 11:42:24;;;;;;;;;1.00;1.00;;;;;;;;5092759;28;8840;-94
2023/07/16 11:44:52;;;;;;;;;4.00;3.40;;;;;;;;5093207;28;8844;-90
2023/07/16 11:47:19;;;;;;;;;4.00;4.00;;;;;;;;5093426;28;8967;-88
2023/07/16 11:49:46;;;;;;;;;3.60;3.60;;;;;;;;5092644;28;8974;-80
2023/07/16 11:52:13;;;;;;;;;4.20;4.20;;;;;;;;5092123;28;8851;-82
2023/07/16 11:54:41;;;;;;;;;4.00;4.00;;;;;;;;5091750;28;8836;-77
2023/07/16 11:57:08;;;;;;;;;3.60;1.60;;;;;;;;5092655;28;8864;-82
2023/07/16 11:59:37;;;;;;;;;2.20;2.20;;;;;;;;5092888;28;9622;-78
2023/07/16 12:02:04;;;;;;;;;4.00;4.00;;;;;;;;5091336;28;8780;-88
2023/07/16 12:04:31;;;;;;;;;5.60;3.80;;;;;;;;5092246;28;8836;-79
2023/07/16 12:07:01;;;;;;;;;2.20;2.20;;;;;;;;5092105;28;8855;-81
2023/07/16 12:09:29;;;;;;;;;4.60;3.80;;;;;;;;5091404;28;8932;-81
2023/07/16 12:11:56;;;;;;;;;3.60;3.20;;;;;;;;5091285;28;8843;-80
2023/07/16 12:14:24;;;;;;;;;3.20;3.20;;;;;;;;5092185;28;8843;-82
2023/07/16 12:16:52;;;;;;;;;3.40;3.40;;;;;;;;5094565;28;8836;-82
2023/07/16 12:19:19;;;;;;;;;5.40;3.20;;;;;;;;5095024;28;8844;-78
2023/07/16 12:21:47;;;;;;;;;4.00;4.00;;;;;;;;5094675;28;8858;-81
2023/07/16 12:24:14;;;;;;;;;6.00;5.00;;;;;;;;5095298;28;8859;-81
2023/07/16 12:26:41;;;;;;;;;4.40;3.80;;;;;;;;5086756;28;8826;-76
2023/07/16 12:29:08;;;;;;;;;2.40;2.40;;;;;;;;5074202;28;9027;-87
2023/07/16 12:31:36;;;;;;;;;4.00;4.00;;;;;;;;5072702;28;8790;-92
2023/07/16 12:34:04;;;;;;;;;2.40;2.40;;;;;;;;5072384;28;8852;-92
2023/07/16 12:36:31;;;;;;;;;4.40;3.80;;;;;;;;5072159;28;8850;-83
2023/07/16 12:38:59;;;;;;;;;3.80;3.80;;;;;;;;5071369;28;8988;-86
2023/07/16 12:41:27;;;;;;;;;4.40;4.40;;;;;;;;5071788;28;8838;-87
2023/07/16 12:43:54;;;;;;;;;3.00;3.00;;;;;;;;5071728;28;8972;-85
2023/07/16 12:46:21;;;;;;;;;5.00;4.20;;;;;;;;5072141;28;8849;-86
2023/07/16 12:48:48;;;;;;;;;2.80;2.80;;;;;;;;5071145;28;8870;-90
2023/07/16 12:51:17;;;;;;;;;7.20;4.00;;;;;;;;5071210;28;8838;-84
2023/07/16 12:53:44;;;;;;;;;5.40;3.60;;;;;;;;5071442;28;8868;-85
2023/07/16 12:56:11;;;;;;;;;1.00;0.00;;;;;;;;5071769;28;8910;-85
2023/07/16 12:58:38;;;;;;;;;5.40;4.00;;;;;;;;5071967;28;8869;-84
2023/07/16 13:01:06;;;;;;;;;3.20;3.20;;;;;;;;5070999;28;8778;-86
2023/07/16 13:03:33;;;;;;;;;6.80;5.20;;;;;;;;5072044;28;8884;-83
2023/07/16 13:06:00;;;;;;;;;4.60;3.20;;;;;;;;5071539;28;9349;-82
2023/07/16 13:08:30;;;;;;;;;3.80;3.80;;;;;;;;5072234;28;8845;-85
2023/07/16 13:10:59;;;;;;;;;4.80;3.40;;;;;;;;5071062;28;8857;-84
2023/07/16 13:13:27;;;;;;;;;3.40;1.80;;;;;;;;5071114;28;8837;-84
2023/07/16 13:15:54;;;;;;;;;4.80;2.20;;;;;;;;5070791;28;8830;-84
2023/07/16 13:18:21;;;;;;;;;2.60;2.60;;;;;;;;5071005;28;8834;-86
2023/07/16 13:20:48;;;;;;;;;3.00;3.00;;;;;;;;5071124;28;8864;-82
2023/07/16 13:23:16;;;;;;;;;3.00;2.20;;;;;;;;5070878;28;8842;-85
2023/07/16 13:25:44;;;;;;;;;2.20;2.20;;;;;;;;5070371;28;8877;-81
2023/07/16 13:28:11;;;;;;;;;3.40;2.40;;;;;;;;5090471;28;8839;-83
2023/07/16 13:30:38;;;;;;;;;3.20;3.20;;;;;;;;5091352;28;8804;-90
2023/07/16 13:33:06;;;;;;;;;3.00;2.40;;;;;;;;5091058;28;8851;-75
2023/07/16 13:35:33;;;;;;;;;2.20;2.20;;;;;;;;5089991;28;8851;-74
2023/07/16 13:38:01;;;;;;;;;4.00;2.00;;;;;;;;5090155;28;9002;-83
2023/07/16 13:40:31;;;;;;;;;1.60;1.60;;;;;;;;5091487;28;8901;-81
2023/07/16 13:43:02;;;;;;;;;2.60;2.20;;;;;;;;5089837;28;8928;-83
2023/07/16 13:45:29;;;;;;;;;3.60;3.60;;;;;;;;5091214;28;8887;-89
2023/07/16 13:47:56;;;;;;;;;2.80;2.20;;;;;;;;5091359;28;8844;-90
2023/07/16 13:50:23;;;;;;;;;0.60;0.60;;;;;;;;5093562;28;8860;-92
2023/07/16 13:52:51;;;;;;;;;3.00;3.00;;;;;;;;5093112;28;8866;-91
2023/07/16 13:55:18;;;;;;;;;4.80;3.00;;;;;;;;5094269;28;8831;-95
2023/07/16 13:57:45;;;;;;;;;3.80;1.20;;;;;;;;5095181;28;8917;-87
2023/07/16 14:00:15;;;;;;;;;2.40;2.40;;;;;;;;5094361;28;8828;-90
2023/07/16 14:02:46;;;;;;;;;4.20;4.20;;;;;;;;5091941;28;8914;-83
2023/07/16 14:05:13;;;;;;;;;6.00;6.00;;;;;;;;5090918;28;8824;-84
2023/07/16 14:07:40;;;;;;;;;5.00;4.00;;;;;;;;5090627;28;8866;-71
2023/07/16 14:10:09;;;;;;;;;5.40;3.20;;;;;;;;5089876;28;8840;-84
2023/07/16 14:12:36;;;;;;;;;4.00;4.00;;;;;;;;5089589;28;8844;-80
2023/07/16 14:15:04;;;;;;;;;3.40;3.40;;;;;;;;5090640;28;8832;-80
2023/07/16 14:17:32;;;;;;;;;5.00;5.00;;;;;;;;5089589;28;8980;-81
2023/07/16 14:19:59;;;;;;;;;1.20;1.20;;;;;;;;5089639;28;8855;-84
2023/07/16 14:22:27;;;;;;;;;5.20;3.40;;;;;;;;5090568;28;8867;-83
2023/07/16 14:24:55;;;;;;;;;4.00;4.00;;;;;;;;5090906;28;8844;-87
2023/07/16 14:27:22;;;;;;;;;6.60;3.00;;;;;;;;5078617;28;8833;-87
2023/07/16 14:29:50;;;;;;;;;3.80;3.80;;;;;;;;5075912;28;8873;-79
2023/07/16 14:32:17;;;;;;;;;8.40;3.80;;;;;;;;5071427;28;8782;-82
2023/07/16 14:34:45;;;;;;;;;4.00;4.00;;;;;;;;5069321;28;8838;-79
2023/07/16 14:37:13;;;;;;;;;3.00;3.00;;;;;;;;5072568;28;8852;-83
2023/07/16 14:39:40;;;;;;;;;2.40;2.40;;;;;;;;5074009;28;9656;-72
2023/07/16 14:42:07;;;;;;;;;4.00;4.00;;;;;;;;5072864;28;8864;-78
2023/07/16 14:44:35;;;;;;;;;3.80;3.80;;;;;;;;5073666;28;8834;-78
2023/07/16 14:47:03;;;;;;;;;3.40;3.40;;;;;;;;5073134;28;8868;-84
2023/07/16 14:49:31;;;;;;;;;3.40;3.40;;;;;;;;5074132;28;8857;-81
2023/07/16 14:52:00;;;;;;;;;6.00;4.00;;;;;;;;5073979;28;8849;-83
2023/07/16 14:54:29;;;;;;;;;6.80;4.00;;;;;;;;5074615;28;8849;-84
2023/07/16 14:56:58;;;;;;;;;6.00;5.00;;;;;;;;5075667;28;8949;-83